sensor_id;sensor_type;location;lat;lon;timestamp;P1;durP1;ratioP1;P2;durP2;ratioP2
2031;SDS011;27625;50.422;7.944;2023-09-18T00:01:46;6.57;;;4.43;;
2031;SDS011;27625;50.422;7.944;2023-09-18T00:04:13;9.60;;;5.40;;
2031;SDS011;27625;50.422;7.944;2023-09-18T00:06:40;6.83;;;5.60;;
2031;SDS011;27625;50.422;7.944;2023-09-18T00:09:06;7.77;;;5.57;;
2031;SDS011;27625;50.422;7.944;2023-09-18T00:11:38;6.37;;;4.83;;
2031;SDS011;27625;50.422;7.944;2023-09-18T00:14:07;9.40;;;4.90;;
2031;SDS011;27625;50.422;7.944;2023-09-18T00:16:37;8.87;;;5.10;;
2031;SDS011;27625;50.422;7.944;2023-09-18T00:19:04;8.30;;;5.40;;
2031;SDS011;27625;50.422;7.944;2023-09-18T00:21:33;10.03;;;5.77;;
2031;SDS011;27625;50.422;7.944;2023-09-18T00:24:00;6.83;;;5.10;;
2031;SDS011;27625;50.422;7.944;2023-09-18T00:26:27;6.77;;;4.87;;
2031;SDS011;27625;50.422;7.944;2023-09-18T00:28:56;8.77;;;6.00;;
2031;SDS011;27625;50.422;7.944;2023-09-18T00:31:24;7.30;;;5.30;;
2031;SDS011;27625;50.422;7.944;2023-09-18T00:33:50;7.73;;;4.80;;
2031;SDS011;27625;50.422;7.944;2023-09-18T00:36:18;7.63;;;5.10;;
2031;SDS011;27625;50.422;7.944;2023-09-18T00:38:45;6.47;;;4.50;;
2031;SDS011;27625;50.422;7.944;2023-09-18T00:41:12;6.67;;;4.93;;
2031;SDS011;27625;50.422;7.944;2023-09-18T00:43:39;7.90;;;5.17;;
2031;SDS011;27625;50.422;7.944;2023-09-18T00:46:06;8.70;;;5.20;;
2031;SDS011;27625;50.422;7.944;2023-09-18T00:48:34;10.17;;;4.93;;
2031;SDS011;27625;50.422;7.944;2023-09-18T00:51:01;8.20;;;6.30;;
2031;SDS011;27625;50.422;7.944;2023-09-18T00:53:30;7.00;;;5.00;;
2031;SDS011;27625;50.422;7.944;2023-09-18T00:55:57;10.60;;;4.90;;
2031;SDS011;27625;50.422;7.944;2023-09-18T00:58:26;12.57;;;5.67;;
2031;SDS011;27625;50.422;7.944;2023-09-18T01:00:53;7.40;;;5.07;;
2031;SDS011;27625;50.422;7.944;2023-09-18T01:03:22;10.00;;;5.30;;
2031;SDS011;27625;50.422;7.944;2023-09-18T01:05:51;9.43;;;5.53;;
2031;SDS011;27625;50.422;7.944;2023-09-18T01:08:19;10.97;;;5.70;;
2031;SDS011;27625;50.422;7.944;2023-09-18T01:10:47;6.40;;;5.00;;
2031;SDS011;27625;50.422;7.944;2023-09-18T01:13:22;8.33;;;5.73;;
2031;SDS011;27625;50.422;7.944;2023-09-18T01:15:52;11.40;;;5.37;;
2031;SDS011;27625;50.422;7.944;2023-09-18T01:18:21;7.37;;;5.30;;
2031;SDS011;27625;50.422;7.944;2023-09-18T01:20:48;7.20;;;4.53;;
2031;SDS011;27625;50.422;7.944;2023-09-18T01:23:16;8.07;;;5.57;;
2031;SDS011;27625;50.422;7.944;2023-09-18T01:25:43;9.07;;;5.37;;
2031;SDS011;27625;50.422;7.944;2023-09-18T01:28:09;8.10;;;5.40;;
2031;SDS011;27625;50.422;7.944;2023-09-18T01:30:36;10.20;;;5.60;;
2031;SDS011;27625;50.422;7.944;2023-09-18T01:33:03;9.40;;;5.00;;
2031;SDS011;27625;50.422;7.944;2023-09-18T01:35:31;10.10;;;6.17;;
2031;SDS011;27625;50.422;7.944;2023-09-18T01:38:00;9.20;;;5.37;;
2031;SDS011;27625;50.422;7.944;2023-09-18T01:40:29;8.27;;;5.70;;
2031;SDS011;27625;50.422;7.944;2023-09-18T01:42:57;10.60;;;5.43;;
2031;SDS011;27625;50.422;7.944;2023-09-18T01:45:24;8.67;;;5.40;;
2031;SDS011;27625;50.422;7.944;2023-09-18T01:47:52;7.43;;;5.53;;
2031;SDS011;27625;50.422;7.944;2023-09-18T01:50:19;7.30;;;5.53;;
2031;SDS011;27625;50.422;7.944;2023-09-18T01:52:47;10.90;;;6.10;;
2031;SDS011;27625;50.422;7.944;2023-09-18T01:55:14;7.80;;;5.17;;
2031;SDS011;27625;50.422;7.944;2023-09-18T01:57:42;7.63;;;5.90;;
2031;SDS011;27625;50.422;7.944;2023-09-18T02:00:10;11.40;;;5.93;;
2031;SDS011;27625;50.422;7.944;2023-09-18T02:02:39;9.83;;;6.70;;
2031;SDS011;27625;50.422;7.944;2023-09-18T02:05:07;10.10;;;5.87;;
2031;SDS011;27625;50.422;7.944;2023-09-18T02:07:34;7.60;;;5.47;;
2031;SDS011;27625;50.422;7.944;2023-09-18T02:10:02;8.23;;;5.20;;
2031;SDS011;27625;50.422;7.944;2023-09-18T02:12:30;12.63;;;5.43;;
2031;SDS011;27625;50.422;7.944;2023-09-18T02:15:02;11.50;;;5.33;;
2031;SDS011;27625;50.422;7.944;2023-09-18T02:17:31;9.23;;;4.93;;
2031;SDS011;27625;50.422;7.944;2023-09-18T02:19:58;11.17;;;5.90;;
2031;SDS011;27625;50.422;7.944;2023-09-18T02:22:26;8.73;;;5.50;;
2031;SDS011;27625;50.422;7.944;2023-09-18T02:24:53;14.03;;;6.37;;
2031;SDS011;27625;50.422;7.944;2023-09-18T02:27:21;11.23;;;6.13;;
2031;SDS011;27625;50.422;7.944;2023-09-18T02:29:48;11.80;;;5.50;;
2031;SDS011;27625;50.422;7.944;2023-09-18T02:32:17;9.30;;;5.63;;
2031;SDS011;27625;50.422;7.944;2023-09-18T02:34:44;14.03;;;5.73;;
2031;SDS011;27625;50.422;7.944;2023-09-18T02:37:12;7.73;;;5.77;;
2031;SDS011;27625;50.422;7.944;2023-09-18T02:39:39;7.93;;;5.60;;
2031;SDS011;27625;50.422;7.944;2023-09-18T02:42:06;8.77;;;5.53;;
2031;SDS011;27625;50.422;7.944;2023-09-18T02:44:33;10.30;;;5.40;;
2031;SDS011;27625;50.422;7.944;2023-09-18T02:47:00;8.60;;;5.43;;
2031;SDS011;27625;50.422;7.944;2023-09-18T02:49:28;9.63;;;6.40;;
2031;SDS011;27625;50.422;7.944;2023-09-18T02:51:56;10.43;;;5.40;;
2031;SDS011;27625;50.422;7.944;2023-09-18T02:54:22;8.70;;;5.97;;
2031;SDS011;27625;50.422;7.944;2023-09-18T02:56:49;8.43;;;5.30;;
2031;SDS011;27625;50.422;7.944;2023-09-18T02:59:16;11.23;;;5.57;;
2031;SDS011;27625;50.422;7.944;2023-09-18T03:01:43;9.80;;;6.20;;
2031;SDS011;27625;50.422;7.944;2023-09-18T03:04:09;9.53;;;5.50;;
2031;SDS011;27625;50.422;7.944;2023-09-18T03:09:07;7.60;;;5.87;;
2031;SDS011;27625;50.422;7.944;2023-09-18T03:11:35;7.20;;;5.47;;
2031;SDS011;27625;50.422;7.944;2023-09-18T03:14:01;11.47;;;6.23;;
2031;SDS011;27625;50.422;7.944;2023-09-18T03:16:31;7.33;;;5.53;;
2031;SDS011;27625;50.422;7.944;2023-09-18T03:18:58;8.43;;;5.27;;
2031;SDS011;27625;50.422;7.944;2023-09-18T03:21:26;8.37;;;5.70;;
2031;SDS011;27625;50.422;7.944;2023-09-18T03:23:54;8.60;;;6.00;;
2031;SDS011;27625;50.422;7.944;2023-09-18T03:26:25;7.60;;;4.97;;
2031;SDS011;27625;50.422;7.944;2023-09-18T03:28:52;9.27;;;5.27;;
2031;SDS011;27625;50.422;7.944;2023-09-18T03:31:19;11.13;;;5.33;;
2031;SDS011;27625;50.422;7.944;2023-09-18T03:33:46;7.60;;;5.47;;
2031;SDS011;27625;50.422;7.944;2023-09-18T03:36:15;8.97;;;5.20;;
2031;SDS011;27625;50.422;7.944;2023-09-18T03:38:42;9.60;;;5.20;;
2031;SDS011;27625;50.422;7.944;2023-09-18T03:41:10;6.97;;;5.20;;
2031;SDS011;27625;50.422;7.944;2023-09-18T03:43:37;12.30;;;5.60;;
2031;SDS011;27625;50.422;7.944;2023-09-18T03:46:04;8.50;;;6.03;;
2031;SDS011;27625;50.422;7.944;2023-09-18T03:48:37;16.33;;;6.53;;
2031;SDS011;27625;50.422;7.944;2023-09-18T03:51:04;12.30;;;5.90;;
2031;SDS011;27625;50.422;7.944;2023-09-18T03:53:33;9.13;;;6.07;;
2031;SDS011;27625;50.422;7.944;2023-09-18T03:55:59;7.80;;;5.40;;
2031;SDS011;27625;50.422;7.944;2023-09-18T03:58:30;8.83;;;6.70;;
2031;SDS011;27625;50.422;7.944;2023-09-18T04:00:56;10.03;;;5.50;;
2031;SDS011;27625;50.422;7.944;2023-09-18T04:03:23;8.50;;;5.37;;
2031;SDS011;27625;50.422;7.944;2023-09-18T04:05:50;10.00;;;5.93;;
2031;SDS011;27625;50.422;7.944;2023-09-18T04:08:16;8.03;;;5.40;;
2031;SDS011;27625;50.422;7.944;2023-09-18T04:10:43;9.60;;;5.63;;
2031;SDS011;27625;50.422;7.944;2023-09-18T04:13:11;11.67;;;5.80;;
2031;SDS011;27625;50.422;7.944;2023-09-18T04:15:39;9.20;;;5.73;;
2031;SDS011;27625;50.422;7.944;2023-09-18T04:18:06;12.37;;;5.63;;
2031;SDS011;27625;50.422;7.944;2023-09-18T04:20:35;8.00;;;5.90;;
2031;SDS011;27625;50.422;7.944;2023-09-18T04:25:54;9.70;;;6.30;;
2031;SDS011;27625;50.422;7.944;2023-09-18T04:28:24;9.40;;;5.30;;
2031;SDS011;27625;50.422;7.944;2023-09-18T04:30:55;13.73;;;5.50;;
2031;SDS011;27625;50.422;7.944;2023-09-18T04:33:23;10.03;;;5.60;;
2031;SDS011;27625;50.422;7.944;2023-09-18T04:35:52;11.60;;;6.13;;
2031;SDS011;27625;50.422;7.944;2023-09-18T04:38:18;11.00;;;6.20;;
2031;SDS011;27625;50.422;7.944;2023-09-18T04:40:46;7.10;;;5.27;;
2031;SDS011;27625;50.422;7.944;2023-09-18T04:43:13;10.50;;;5.80;;
2031;SDS011;27625;50.422;7.944;2023-09-18T04:45:40;7.80;;;5.30;;
2031;SDS011;27625;50.422;7.944;2023-09-18T04:48:09;8.50;;;4.93;;
2031;SDS011;27625;50.422;7.944;2023-09-18T04:50:37;11.40;;;5.70;;
2031;SDS011;27625;50.422;7.944;2023-09-18T04:53:04;13.07;;;6.53;;
2031;SDS011;27625;50.422;7.944;2023-09-18T04:55:32;6.80;;;5.17;;
2031;SDS011;27625;50.422;7.944;2023-09-18T04:58:00;6.67;;;4.57;;
2031;SDS011;27625;50.422;7.944;2023-09-18T05:00:29;6.33;;;4.67;;
2031;SDS011;27625;50.422;7.944;2023-09-18T05:02:57;9.57;;;5.73;;
2031;SDS011;27625;50.422;7.944;2023-09-18T05:05:27;7.43;;;5.30;;
2031;SDS011;27625;50.422;7.944;2023-09-18T05:07:55;7.80;;;5.20;;
2031;SDS011;27625;50.422;7.944;2023-09-18T05:10:23;8.07;;;5.63;;
2031;SDS011;27625;50.422;7.944;2023-09-18T05:13:00;7.50;;;5.30;;
2031;SDS011;27625;50.422;7.944;2023-09-18T05:15:28;8.47;;;5.60;;
2031;SDS011;27625;50.422;7.944;2023-09-18T05:17:55;12.70;;;5.80;;
2031;SDS011;27625;50.422;7.944;2023-09-18T05:20:25;9.70;;;5.70;;
2031;SDS011;27625;50.422;7.944;2023-09-18T05:22:55;12.33;;;6.60;;
2031;SDS011;27625;50.422;7.944;2023-09-18T05:25:29;7.13;;;5.53;;
2031;SDS011;27625;50.422;7.944;2023-09-18T05:27:58;11.10;;;6.10;;
2031;SDS011;27625;50.422;7.944;2023-09-18T05:30:27;9.03;;;5.33;;
2031;SDS011;27625;50.422;7.944;2023-09-18T05:32:56;6.53;;;4.47;;
2031;SDS011;27625;50.422;7.944;2023-09-18T05:35:22;12.63;;;4.00;;
2031;SDS011;27625;50.422;7.944;2023-09-18T05:37:53;7.87;;;3.90;;
2031;SDS011;27625;50.422;7.944;2023-09-18T05:40:23;5.20;;;3.70;;
2031;SDS011;27625;50.422;7.944;2023-09-18T05:42:52;7.00;;;4.07;;
2031;SDS011;27625;50.422;7.944;2023-09-18T05:45:20;6.27;;;3.40;;
2031;SDS011;27625;50.422;7.944;2023-09-18T05:47:47;8.47;;;3.50;;
2031;SDS011;27625;50.422;7.944;2023-09-18T05:50:16;9.13;;;3.10;;
2031;SDS011;27625;50.422;7.944;2023-09-18T05:52:43;5.70;;;3.33;;
2031;SDS011;27625;50.422;7.944;2023-09-18T05:55:12;9.17;;;2.90;;
2031;SDS011;27625;50.422;7.944;2023-09-18T05:57:39;7.13;;;2.83;;
2031;SDS011;27625;50.422;7.944;2023-09-18T06:00:06;6.03;;;2.93;;
2031;SDS011;27625;50.422;7.944;2023-09-18T06:02:39;8.30;;;2.40;;
2031;SDS011;27625;50.422;7.944;2023-09-18T06:05:06;9.37;;;2.90;;
2031;SDS011;27625;50.422;7.944;2023-09-18T06:07:36;5.23;;;2.87;;
2031;SDS011;27625;50.422;7.944;2023-09-18T06:10:03;5.70;;;2.83;;
2031;SDS011;27625;50.422;7.944;2023-09-18T06:12:34;8.00;;;2.93;;
2031;SDS011;27625;50.422;7.944;2023-09-18T06:15:07;7.50;;;3.10;;
2031;SDS011;27625;50.422;7.944;2023-09-18T06:17:35;7.00;;;2.80;;
2031;SDS011;27625;50.422;7.944;2023-09-18T06:20:04;10.40;;;3.20;;
2031;SDS011;27625;50.422;7.944;2023-09-18T06:22:33;5.63;;;2.60;;
2031;SDS011;27625;50.422;7.944;2023-09-18T06:24:59;5.23;;;3.00;;
2031;SDS011;27625;50.422;7.944;2023-09-18T06:27:26;7.60;;;2.70;;
2031;SDS011;27625;50.422;7.944;2023-09-18T06:29:56;8.53;;;3.07;;
2031;SDS011;27625;50.422;7.944;2023-09-18T06:32:23;5.10;;;2.70;;
2031;SDS011;27625;50.422;7.944;2023-09-18T06:37:19;6.50;;;3.30;;
2031;SDS011;27625;50.422;7.944;2023-09-18T06:39:48;8.83;;;2.83;;
2031;SDS011;27625;50.422;7.944;2023-09-18T06:42:15;4.93;;;2.60;;
2031;SDS011;27625;50.422;7.944;2023-09-18T06:44:42;5.60;;;2.87;;
2031;SDS011;27625;50.422;7.944;2023-09-18T06:49:44;8.53;;;2.77;;
2031;SDS011;27625;50.422;7.944;2023-09-18T06:52:12;3.60;;;2.40;;
2031;SDS011;27625;50.422;7.944;2023-09-18T06:54:39;8.40;;;2.97;;
2031;SDS011;27625;50.422;7.944;2023-09-18T06:57:06;5.63;;;2.20;;
2031;SDS011;27625;50.422;7.944;2023-09-18T06:59:34;5.30;;;2.63;;
2031;SDS011;27625;50.422;7.944;2023-09-18T07:02:01;11.23;;;2.50;;
2031;SDS011;27625;50.422;7.944;2023-09-18T07:04:30;2.70;;;2.03;;
2031;SDS011;27625;50.422;7.944;2023-09-18T07:06:57;7.33;;;2.37;;
2031;SDS011;27625;50.422;7.944;2023-09-18T07:09:24;6.10;;;2.40;;
2031;SDS011;27625;50.422;7.944;2023-09-18T07:11:51;4.50;;;2.70;;
2031;SDS011;27625;50.422;7.944;2023-09-18T07:14:18;4.03;;;2.50;;
2031;SDS011;27625;50.422;7.944;2023-09-18T07:16:45;5.63;;;2.57;;
2031;SDS011;27625;50.422;7.944;2023-09-18T07:19:12;6.60;;;2.60;;
2031;SDS011;27625;50.422;7.944;2023-09-18T07:21:43;4.37;;;2.30;;
2031;SDS011;27625;50.422;7.944;2023-09-18T07:24:11;7.03;;;2.50;;
2031;SDS011;27625;50.422;7.944;2023-09-18T07:26:50;6.83;;;2.20;;
2031;SDS011;27625;50.422;7.944;2023-09-18T07:29:18;4.20;;;2.20;;
2031;SDS011;27625;50.422;7.944;2023-09-18T07:31:45;6.83;;;2.90;;
2031;SDS011;27625;50.422;7.944;2023-09-18T07:36:47;3.27;;;2.27;;
2031;SDS011;27625;50.422;7.944;2023-09-18T07:39:19;5.33;;;2.40;;
2031;SDS011;27625;50.422;7.944;2023-09-18T07:41:47;7.67;;;2.33;;
2031;SDS011;27625;50.422;7.944;2023-09-18T07:44:18;5.97;;;2.13;;
2031;SDS011;27625;50.422;7.944;2023-09-18T07:46:47;6.10;;;3.00;;
2031;SDS011;27625;50.422;7.944;2023-09-18T07:49:14;4.70;;;2.50;;
2031;SDS011;27625;50.422;7.944;2023-09-18T07:51:42;5.27;;;2.97;;
2031;SDS011;27625;50.422;7.944;2023-09-18T07:54:14;5.33;;;2.53;;
2031;SDS011;27625;50.422;7.944;2023-09-18T07:56:45;4.67;;;2.57;;
2031;SDS011;27625;50.422;7.944;2023-09-18T07:59:12;5.73;;;2.47;;
2031;SDS011;27625;50.422;7.944;2023-09-18T08:01:39;6.60;;;2.63;;
2031;SDS011;27625;50.422;7.944;2023-09-18T08:04:07;7.17;;;3.07;;
2031;SDS011;27625;50.422;7.944;2023-09-18T08:06:33;7.90;;;2.60;;
2031;SDS011;27625;50.422;7.944;2023-09-18T08:09:02;4.60;;;2.60;;
2031;SDS011;27625;50.422;7.944;2023-09-18T08:11:33;3.93;;;2.27;;
2031;SDS011;27625;50.422;7.944;2023-09-18T08:14:00;5.17;;;2.70;;
2031;SDS011;27625;50.422;7.944;2023-09-18T08:16:29;5.40;;;2.33;;
2031;SDS011;27625;50.422;7.944;2023-09-18T08:18:57;6.77;;;2.70;;
2031;SDS011;27625;50.422;7.944;2023-09-18T08:21:24;6.33;;;2.13;;
2031;SDS011;27625;50.422;7.944;2023-09-18T08:23:51;4.60;;;2.70;;
2031;SDS011;27625;50.422;7.944;2023-09-18T08:26:17;12.23;;;2.93;;
2031;SDS011;27625;50.422;7.944;2023-09-18T08:28:45;7.70;;;2.53;;
2031;SDS011;27625;50.422;7.944;2023-09-18T08:31:12;5.60;;;2.27;;
2031;SDS011;27625;50.422;7.944;2023-09-18T08:33:40;7.30;;;2.40;;
2031;SDS011;27625;50.422;7.944;2023-09-18T08:36:07;4.00;;;2.40;;
2031;SDS011;27625;50.422;7.944;2023-09-18T08:38:33;4.70;;;2.83;;
2031;SDS011;27625;50.422;7.944;2023-09-18T08:41:01;10.63;;;2.63;;
2031;SDS011;27625;50.422;7.944;2023-09-18T08:43:28;5.67;;;2.30;;
2031;SDS011;27625;50.422;7.944;2023-09-18T08:45:57;6.60;;;2.70;;
2031;SDS011;27625;50.422;7.944;2023-09-18T08:48:33;5.10;;;2.70;;
2031;SDS011;27625;50.422;7.944;2023-09-18T08:51:01;6.20;;;2.80;;
2031;SDS011;27625;50.422;7.944;2023-09-18T08:53:29;7.20;;;2.87;;
2031;SDS011;27625;50.422;7.944;2023-09-18T08:55:58;4.50;;;2.50;;
2031;SDS011;27625;50.422;7.944;2023-09-18T08:58:28;4.57;;;2.53;;
2031;SDS011;27625;50.422;7.944;2023-09-18T09:00:58;3.73;;;2.23;;
2031;SDS011;27625;50.422;7.944;2023-09-18T09:03:26;6.33;;;2.37;;
2031;SDS011;27625;50.422;7.944;2023-09-18T09:05:54;3.00;;;2.27;;
2031;SDS011;27625;50.422;7.944;2023-09-18T09:08:24;7.23;;;3.10;;
2031;SDS011;27625;50.422;7.944;2023-09-18T09:10:50;5.27;;;2.93;;
2031;SDS011;27625;50.422;7.944;2023-09-18T09:13:18;5.77;;;3.00;;
2031;SDS011;27625;50.422;7.944;2023-09-18T09:15:50;5.53;;;2.60;;
2031;SDS011;27625;50.422;7.944;2023-09-18T09:18:22;5.73;;;2.70;;
2031;SDS011;27625;50.422;7.944;2023-09-18T09:20:54;5.63;;;2.80;;
2031;SDS011;27625;50.422;7.944;2023-09-18T09:26:11;5.20;;;2.87;;
2031;SDS011;27625;50.422;7.944;2023-09-18T09:28:40;3.50;;;2.57;;
2031;SDS011;27625;50.422;7.944;2023-09-18T09:31:11;5.33;;;2.87;;
2031;SDS011;27625;50.422;7.944;2023-09-18T09:33:51;4.33;;;2.70;;
2031;SDS011;27625;50.422;7.944;2023-09-18T09:36:20;3.73;;;2.50;;
2031;SDS011;27625;50.422;7.944;2023-09-18T09:38:47;4.00;;;2.23;;
2031;SDS011;27625;50.422;7.944;2023-09-18T09:41:14;4.40;;;2.83;;
2031;SDS011;27625;50.422;7.944;2023-09-18T09:43:43;4.83;;;2.80;;
2031;SDS011;27625;50.422;7.944;2023-09-18T09:46:14;6.00;;;2.67;;
2031;SDS011;27625;50.422;7.944;2023-09-18T09:51:27;5.07;;;2.47;;
2031;SDS011;27625;50.422;7.944;2023-09-18T09:54:01;4.00;;;2.83;;
2031;SDS011;27625;50.422;7.944;2023-09-18T09:56:41;5.57;;;3.33;;
2031;SDS011;27625;50.422;7.944;2023-09-18T09:59:16;4.23;;;2.60;;
2031;SDS011;27625;50.422;7.944;2023-09-18T10:01:50;7.30;;;3.13;;
2031;SDS011;27625;50.422;7.944;2023-09-18T10:04:19;5.20;;;2.30;;
2031;SDS011;27625;50.422;7.944;2023-09-18T10:06:48;4.27;;;2.30;;
2031;SDS011;27625;50.422;7.944;2023-09-18T10:09:18;4.00;;;2.83;;
2031;SDS011;27625;50.422;7.944;2023-09-18T10:11:48;5.10;;;2.67;;
2031;SDS011;27625;50.422;7.944;2023-09-18T10:14:23;3.93;;;2.77;;
2031;SDS011;27625;50.422;7.944;2023-09-18T10:16:59;5.90;;;3.10;;
2031;SDS011;27625;50.422;7.944;2023-09-18T10:19:43;4.10;;;2.80;;
2031;SDS011;27625;50.422;7.944;2023-09-18T10:22:21;3.50;;;2.40;;
2031;SDS011;27625;50.422;7.944;2023-09-18T10:24:59;8.00;;;3.20;;
2031;SDS011;27625;50.422;7.944;2023-09-18T10:27:33;4.13;;;2.57;;
2031;SDS011;27625;50.422;7.944;2023-09-18T10:30:03;4.00;;;2.57;;
2031;SDS011;27625;50.422;7.944;2023-09-18T10:32:32;3.80;;;2.50;;
2031;SDS011;27625;50.422;7.944;2023-09-18T10:35:00;5.50;;;3.20;;
2031;SDS011;27625;50.422;7.944;2023-09-18T10:37:28;3.67;;;2.10;;
2031;SDS011;27625;50.422;7.944;2023-09-18T10:39:58;6.63;;;2.30;;
2031;SDS011;27625;50.422;7.944;2023-09-18T10:42:28;3.53;;;2.20;;
2031;SDS011;27625;50.422;7.944;2023-09-18T10:44:55;2.70;;;2.10;;
2031;SDS011;27625;50.422;7.944;2023-09-18T10:47:22;3.47;;;2.13;;
2031;SDS011;27625;50.422;7.944;2023-09-18T10:49:51;3.40;;;2.00;;
2031;SDS011;27625;50.422;7.944;2023-09-18T10:52:19;3.83;;;1.97;;
2031;SDS011;27625;50.422;7.944;2023-09-18T10:54:46;3.03;;;1.90;;
2031;SDS011;27625;50.422;7.944;2023-09-18T10:57:13;3.40;;;1.67;;
2031;SDS011;27625;50.422;7.944;2023-09-18T10:59:43;2.63;;;1.70;;
2031;SDS011;27625;50.422;7.944;2023-09-18T11:02:13;3.07;;;1.60;;
2031;SDS011;27625;50.422;7.944;2023-09-18T11:04:42;3.13;;;1.60;;
2031;SDS011;27625;50.422;7.944;2023-09-18T11:07:23;3.37;;;1.60;;
2031;SDS011;27625;50.422;7.944;2023-09-18T11:09:50;2.83;;;1.60;;
2031;SDS011;27625;50.422;7.944;2023-09-18T11:12:41;3.93;;;1.60;;
2031;SDS011;27625;50.422;7.944;2023-09-18T11:15:10;3.30;;;1.70;;
2031;SDS011;27625;50.422;7.944;2023-09-18T11:17:58;2.43;;;1.80;;
2031;SDS011;27625;50.422;7.944;2023-09-18T11:20:25;3.43;;;1.90;;
2031;SDS011;27625;50.422;7.944;2023-09-18T11:22:57;2.80;;;1.40;;
2031;SDS011;27625;50.422;7.944;2023-09-18T11:25:34;3.17;;;1.67;;
2031;SDS011;27625;50.422;7.944;2023-09-18T11:28:02;4.10;;;2.20;;
2031;SDS011;27625;50.422;7.944;2023-09-18T11:30:31;3.10;;;1.90;;
2031;SDS011;27625;50.422;7.944;2023-09-18T11:33:01;3.10;;;1.60;;
2031;SDS011;27625;50.422;7.944;2023-09-18T11:35:28;3.33;;;1.80;;
2031;SDS011;27625;50.422;7.944;2023-09-18T11:38:07;2.53;;;1.40;;
2031;SDS011;27625;50.422;7.944;2023-09-18T11:40:38;3.43;;;1.70;;
2031;SDS011;27625;50.422;7.944;2023-09-18T11:43:19;3.83;;;1.57;;
2031;SDS011;27625;50.422;7.944;2023-09-18T11:45:52;2.60;;;1.60;;
2031;SDS011;27625;50.422;7.944;2023-09-18T11:48:20;6.87;;;1.80;;
2031;SDS011;27625;50.422;7.944;2023-09-18T11:50:48;3.67;;;1.73;;
2031;SDS011;27625;50.422;7.944;2023-09-18T11:53:19;2.20;;;1.57;;
2031;SDS011;27625;50.422;7.944;2023-09-18T11:55:46;4.53;;;1.80;;
2031;SDS011;27625;50.422;7.944;2023-09-18T11:58:13;2.77;;;1.70;;
2031;SDS011;27625;50.422;7.944;2023-09-18T12:00:40;2.83;;;1.80;;
2031;SDS011;27625;50.422;7.944;2023-09-18T12:03:18;4.83;;;2.13;;
2031;SDS011;27625;50.422;7.944;2023-09-18T12:05:55;3.80;;;1.80;;
2031;SDS011;27625;50.422;7.944;2023-09-18T12:08:28;3.37;;;1.60;;
2031;SDS011;27625;50.422;7.944;2023-09-18T12:10:58;3.30;;;1.80;;
2031;SDS011;27625;50.422;7.944;2023-09-18T12:13:25;3.40;;;1.70;;
2031;SDS011;27625;50.422;7.944;2023-09-18T12:15:59;3.27;;;1.87;;
2031;SDS011;27625;50.422;7.944;2023-09-18T12:18:27;3.00;;;1.90;;
2031;SDS011;27625;50.422;7.944;2023-09-18T12:20:55;4.53;;;2.00;;
2031;SDS011;27625;50.422;7.944;2023-09-18T12:23:30;2.50;;;1.70;;
2031;SDS011;27625;50.422;7.944;2023-09-18T12:26:03;3.33;;;2.13;;
2031;SDS011;27625;50.422;7.944;2023-09-18T12:28:32;3.47;;;1.90;;
2031;SDS011;27625;50.422;7.944;2023-09-18T12:31:02;2.83;;;1.77;;
2031;SDS011;27625;50.422;7.944;2023-09-18T12:33:37;2.70;;;1.80;;
2031;SDS011;27625;50.422;7.944;2023-09-18T12:36:06;3.63;;;1.70;;
2031;SDS011;27625;50.422;7.944;2023-09-18T12:38:37;2.80;;;1.80;;
2031;SDS011;27625;50.422;7.944;2023-09-18T12:41:04;4.37;;;2.00;;
2031;SDS011;27625;50.422;7.944;2023-09-18T12:46:13;4.27;;;1.77;;
2031;SDS011;27625;50.422;7.944;2023-09-18T12:48:42;3.77;;;1.60;;
2031;SDS011;27625;50.422;7.944;2023-09-18T12:51:13;5.80;;;1.80;;
2031;SDS011;27625;50.422;7.944;2023-09-18T12:53:58;4.27;;;1.63;;
2031;SDS011;27625;50.422;7.944;2023-09-18T12:56:25;3.63;;;1.70;;
2031;SDS011;27625;50.422;7.944;2023-09-18T12:58:56;3.03;;;1.70;;
2031;SDS011;27625;50.422;7.944;2023-09-18T13:01:27;2.93;;;2.03;;
2031;SDS011;27625;50.422;7.944;2023-09-18T13:03:56;2.67;;;1.70;;
2031;SDS011;27625;50.422;7.944;2023-09-18T13:06:24;3.73;;;1.90;;
2031;SDS011;27625;50.422;7.944;2023-09-18T13:08:52;2.63;;;1.60;;
2031;SDS011;27625;50.422;7.944;2023-09-18T13:11:22;3.00;;;1.87;;
2031;SDS011;27625;50.422;7.944;2023-09-18T13:13:57;2.97;;;1.90;;
2031;SDS011;27625;50.422;7.944;2023-09-18T13:16:23;2.53;;;1.43;;
2031;SDS011;27625;50.422;7.944;2023-09-18T13:18:50;7.33;;;1.90;;
2031;SDS011;27625;50.422;7.944;2023-09-18T13:21:19;4.30;;;1.67;;
2031;SDS011;27625;50.422;7.944;2023-09-18T13:23:46;2.67;;;1.57;;
2031;SDS011;27625;50.422;7.944;2023-09-18T13:26:17;2.57;;;1.53;;
2031;SDS011;27625;50.422;7.944;2023-09-18T13:28:43;3.47;;;1.50;;
2031;SDS011;27625;50.422;7.944;2023-09-18T13:31:16;3.30;;;1.70;;
2031;SDS011;27625;50.422;7.944;2023-09-18T13:33:46;4.50;;;2.10;;
2031;SDS011;27625;50.422;7.944;2023-09-18T13:36:13;3.40;;;1.83;;
2031;SDS011;27625;50.422;7.944;2023-09-18T13:38:41;3.27;;;1.87;;
2031;SDS011;27625;50.422;7.944;2023-09-18T13:41:09;3.07;;;1.93;;
2031;SDS011;27625;50.422;7.944;2023-09-18T13:43:41;4.20;;;1.73;;
2031;SDS011;27625;50.422;7.944;2023-09-18T13:46:10;2.90;;;1.87;;
2031;SDS011;27625;50.422;7.944;2023-09-18T13:48:39;3.33;;;1.87;;
2031;SDS011;27625;50.422;7.944;2023-09-18T13:51:05;3.10;;;1.37;;
2031;SDS011;27625;50.422;7.944;2023-09-18T13:53:33;2.60;;;1.63;;
2031;SDS011;27625;50.422;7.944;2023-09-18T13:56:01;3.30;;;1.87;;
2031;SDS011;27625;50.422;7.944;2023-09-18T13:58:30;3.17;;;2.10;;
2031;SDS011;27625;50.422;7.944;2023-09-18T14:01:00;3.10;;;1.93;;
2031;SDS011;27625;50.422;7.944;2023-09-18T14:03:27;3.10;;;1.93;;
2031;SDS011;27625;50.422;7.944;2023-09-18T14:05:55;3.33;;;2.10;;
2031;SDS011;27625;50.422;7.944;2023-09-18T14:08:21;4.03;;;2.27;;
2031;SDS011;27625;50.422;7.944;2023-09-18T14:10:48;3.63;;;2.37;;
2031;SDS011;27625;50.422;7.944;2023-09-18T14:13:16;5.03;;;2.10;;
2031;SDS011;27625;50.422;7.944;2023-09-18T14:15:42;2.83;;;1.77;;
2031;SDS011;27625;50.422;7.944;2023-09-18T14:18:11;3.20;;;2.30;;
2031;SDS011;27625;50.422;7.944;2023-09-18T14:20:41;3.83;;;1.77;;
2031;SDS011;27625;50.422;7.944;2023-09-18T14:23:10;3.07;;;1.90;;
2031;SDS011;27625;50.422;7.944;2023-09-18T14:25:37;4.03;;;1.87;;
2031;SDS011;27625;50.422;7.944;2023-09-18T14:28:05;3.43;;;1.53;;
2031;SDS011;27625;50.422;7.944;2023-09-18T14:30:32;2.70;;;1.67;;
2031;SDS011;27625;50.422;7.944;2023-09-18T14:32:59;3.33;;;1.93;;
2031;SDS011;27625;50.422;7.944;2023-09-18T14:35:29;2.60;;;1.63;;
2031;SDS011;27625;50.422;7.944;2023-09-18T14:40:30;2.90;;;1.70;;
2031;SDS011;27625;50.422;7.944;2023-09-18T14:42:58;2.77;;;1.90;;
2031;SDS011;27625;50.422;7.944;2023-09-18T14:45:25;3.40;;;2.07;;
2031;SDS011;27625;50.422;7.944;2023-09-18T14:47:52;6.30;;;2.10;;
2031;SDS011;27625;50.422;7.944;2023-09-18T14:50:22;3.40;;;1.80;;
2031;SDS011;27625;50.422;7.944;2023-09-18T14:52:50;3.40;;;1.83;;
2031;SDS011;27625;50.422;7.944;2023-09-18T14:55:17;3.40;;;2.10;;
2031;SDS011;27625;50.422;7.944;2023-09-18T14:57:44;3.83;;;3.40;;
2031;SDS011;27625;50.422;7.944;2023-09-18T15:00:13;4.80;;;2.70;;
2031;SDS011;27625;50.422;7.944;2023-09-18T15:02:41;3.50;;;2.10;;
2031;SDS011;27625;50.422;7.944;2023-09-18T15:05:08;3.40;;;2.30;;
2031;SDS011;27625;50.422;7.944;2023-09-18T15:07:39;5.23;;;2.67;;
2031;SDS011;27625;50.422;7.944;2023-09-18T15:10:08;3.00;;;2.30;;
2031;SDS011;27625;50.422;7.944;2023-09-18T15:12:37;3.80;;;2.90;;
2031;SDS011;27625;50.422;7.944;2023-09-18T15:15:12;4.20;;;2.70;;
2031;SDS011;27625;50.422;7.944;2023-09-18T15:17:40;5.10;;;2.20;;
2031;SDS011;27625;50.422;7.944;2023-09-18T15:20:09;3.63;;;2.20;;
2031;SDS011;27625;50.422;7.944;2023-09-18T15:22:37;4.20;;;2.33;;
2031;SDS011;27625;50.422;7.944;2023-09-18T15:25:08;3.87;;;2.10;;
2031;SDS011;27625;50.422;7.944;2023-09-18T15:27:36;4.43;;;2.00;;
2031;SDS011;27625;50.422;7.944;2023-09-18T15:30:06;4.60;;;1.97;;
2031;SDS011;27625;50.422;7.944;2023-09-18T15:32:33;4.90;;;2.30;;
2031;SDS011;27625;50.422;7.944;2023-09-18T15:35:12;3.20;;;2.23;;